sensor_id;sensor_type;location;lat;lon;timestamp;pressure;altitude;pressure_sealevel;temperature;humidity
25080;BME280;13071;48.868;9.996;2023-04-27T00:02:12;96606.66;;;6.83;83.39
25080;BME280;13071;48.868;9.996;2023-04-27T00:04:40;96601.34;;;6.69;84.46
25080;BME280;13071;48.868;9.996;2023-04-27T00:07:08;96607.13;;;6.63;84.59
25080;BME280;13071;48.868;9.996;2023-04-27T00:09:35;96593.50;;;6.59;85.38
25080;BME280;13071;48.868;9.996;2023-04-27T00:12:01;96601.63;;;6.68;85.43
25080;BME280;13071;48.868;9.996;2023-04-27T00:14:28;96600.34;;;6.65;85.13
25080;BME280;13071;48.868;9.996;2023-04-27T00:16:54;96595.78;;;6.66;85.50
25080;BME280;13071;48.868;9.996;2023-04-27T00:19:22;96594.88;;;6.57;85.52
25080;BME280;13071;48.868;9.996;2023-04-27T00:21:49;96596.31;;;6.54;85.58
25080;BME280;13071;48.868;9.996;2023-04-27T00:24:17;96599.28;;;6.53;85.79
25080;BME280;13071;48.868;9.996;2023-04-27T00:26:43;96596.94;;;6.51;85.21
25080;BME280;13071;48.868;9.996;2023-04-27T00:29:10;96596.44;;;6.49;85.33
25080;BME280;13071;48.868;9.996;2023-04-27T00:31:36;96589.22;;;6.58;85.08
25080;BME280;13071;48.868;9.996;2023-04-27T00:34:03;96580.91;;;6.46;85.10
25080;BME280;13071;48.868;9.996;2023-04-27T00:36:32;96588.19;;;6.45;85.84
25080;BME280;13071;48.868;9.996;2023-04-27T00:38:58;96582.47;;;6.47;85.82
25080;BME280;13071;48.868;9.996;2023-04-27T00:41:26;96584.69;;;6.45;84.98
25080;BME280;13071;48.868;9.996;2023-04-27T00:43:53;96574.34;;;6.38;85.46
25080;BME280;13071;48.868;9.996;2023-04-27T00:46:19;96576.25;;;6.38;86.00
25080;BME280;13071;48.868;9.996;2023-04-27T00:48:46;96575.78;;;6.36;85.96
25080;BME280;13071;48.868;9.996;2023-04-27T00:51:13;96577.44;;;6.32;85.59
25080;BME280;13071;48.868;9.996;2023-04-27T00:53:40;96580.56;;;6.25;85.02
25080;BME280;13071;48.868;9.996;2023-04-27T00:56:07;96574.81;;;6.18;85.58
25080;BME280;13071;48.868;9.996;2023-04-27T00:58:35;96577.81;;;6.17;85.92
25080;BME280;13071;48.868;9.996;2023-04-27T01:01:02;96581.88;;;6.14;85.85
25080;BME280;13071;48.868;9.996;2023-04-27T01:03:30;96584.69;;;6.09;85.83
25080;BME280;13071;48.868;9.996;2023-04-27T01:05:57;96586.75;;;6.12;86.55
25080;BME280;13071;48.868;9.996;2023-04-27T01:08:26;96586.09;;;6.06;85.75
25080;BME280;13071;48.868;9.996;2023-04-27T01:10:52;96592.25;;;6.07;86.02
25080;BME280;13071;48.868;9.996;2023-04-27T01:13:19;96584.28;;;6.02;85.45
25080;BME280;13071;48.868;9.996;2023-04-27T01:15:47;96586.88;;;6.07;85.54
25080;BME280;13071;48.868;9.996;2023-04-27T01:18:14;96585.41;;;6.01;85.39
25080;BME280;13071;48.868;9.996;2023-04-27T01:20:40;96584.09;;;5.98;85.75
25080;BME280;13071;48.868;9.996;2023-04-27T01:23:12;96582.13;;;5.90;85.92
25080;BME280;13071;48.868;9.996;2023-04-27T01:25:39;96588.41;;;5.72;86.69
25080;BME280;13071;48.868;9.996;2023-04-27T01:28:05;96578.44;;;5.59;87.16
25080;BME280;13071;48.868;9.996;2023-04-27T01:30:32;96578.94;;;5.61;87.22
25080;BME280;13071;48.868;9.996;2023-04-27T01:32:59;96583.03;;;5.72;87.23
25080;BME280;13071;48.868;9.996;2023-04-27T01:35:25;96581.81;;;5.64;86.89
25080;BME280;13071;48.868;9.996;2023-04-27T01:37:52;96581.22;;;5.54;86.83
25080;BME280;13071;48.868;9.996;2023-04-27T01:40:20;96586.22;;;5.47;88.23
25080;BME280;13071;48.868;9.996;2023-04-27T01:42:47;96574.56;;;5.51;88.00
25080;BME280;13071;48.868;9.996;2023-04-27T01:45:13;96583.91;;;5.54;88.11
25080;BME280;13071;48.868;9.996;2023-04-27T01:47:40;96574.16;;;5.58;88.51
25080;BME280;13071;48.868;9.996;2023-04-27T01:50:07;96576.56;;;5.59;87.78
25080;BME280;13071;48.868;9.996;2023-04-27T01:52:34;96577.34;;;5.60;87.13
25080;BME280;13071;48.868;9.996;2023-04-27T01:55:00;96576.75;;;5.63;86.71
25080;BME280;13071;48.868;9.996;2023-04-27T01:57:28;96580.53;;;5.62;86.49
25080;BME280;13071;48.868;9.996;2023-04-27T01:59:55;96588.50;;;5.67;87.24
25080;BME280;13071;48.868;9.996;2023-04-27T02:02:22;96584.22;;;5.66;86.18
25080;BME280;13071;48.868;9.996;2023-04-27T02:04:48;96582.22;;;5.58;86.37
25080;BME280;13071;48.868;9.996;2023-04-27T02:07:15;96583.72;;;5.50;86.39
25080;BME280;13071;48.868;9.996;2023-04-27T02:09:42;96583.63;;;5.55;86.20
25080;BME280;13071;48.868;9.996;2023-04-27T02:12:08;96588.38;;;5.58;85.28
25080;BME280;13071;48.868;9.996;2023-04-27T02:14:37;96590.78;;;5.60;85.34
25080;BME280;13071;48.868;9.996;2023-04-27T02:17:03;96593.75;;;5.58;85.08
25080;BME280;13071;48.868;9.996;2023-04-27T02:19:30;96594.53;;;5.59;85.55
25080;BME280;13071;48.868;9.996;2023-04-27T02:21:56;96598.81;;;5.60;85.49
25080;BME280;13071;48.868;9.996;2023-04-27T02:24:23;96594.44;;;5.64;85.16
25080;BME280;13071;48.868;9.996;2023-04-27T02:26:50;96594.44;;;5.64;85.62
25080;BME280;13071;48.868;9.996;2023-04-27T02:29:16;96602.41;;;5.55;84.92
25080;BME280;13071;48.868;9.996;2023-04-27T02:31:44;96596.16;;;5.60;85.27
25080;BME280;13071;48.868;9.996;2023-04-27T02:34:11;96603.81;;;5.67;84.66
25080;BME280;13071;48.868;9.996;2023-04-27T02:36:37;96595.53;;;5.63;84.86
25080;BME280;13071;48.868;9.996;2023-04-27T02:39:04;96594.63;;;5.68;85.25
25080;BME280;13071;48.868;9.996;2023-04-27T02:41:31;96602.13;;;5.57;86.54
25080;BME280;13071;48.868;9.996;2023-04-27T02:43:57;96595.84;;;5.61;86.88
25080;BME280;13071;48.868;9.996;2023-04-27T02:46:24;96591.88;;;5.59;87.75
25080;BME280;13071;48.868;9.996;2023-04-27T02:48:52;96592.38;;;5.61;87.97
25080;BME280;13071;48.868;9.996;2023-04-27T02:51:19;96598.03;;;5.59;88.56
25080;BME280;13071;48.868;9.996;2023-04-27T02:53:45;96594.53;;;5.59;88.96
25080;BME280;13071;48.868;9.996;2023-04-27T02:56:12;96600.25;;;5.57;88.76
25080;BME280;13071;48.868;9.996;2023-04-27T02:58:39;96608.88;;;5.54;88.61
25080;BME280;13071;48.868;9.996;2023-04-27T03:01:05;96601.00;;;5.31;89.62
25080;BME280;13071;48.868;9.996;2023-04-27T03:03:32;96610.03;;;5.21;90.65
25080;BME280;13071;48.868;9.996;2023-04-27T03:06:00;96606.16;;;5.27;90.44
25080;BME280;13071;48.868;9.996;2023-04-27T03:08:27;96606.28;;;5.36;90.17
25080;BME280;13071;48.868;9.996;2023-04-27T03:10:54;96606.66;;;5.29;90.70
25080;BME280;13071;48.868;9.996;2023-04-27T03:13:20;96602.50;;;5.37;90.76
25080;BME280;13071;48.868;9.996;2023-04-27T03:15:47;96610.25;;;5.38;90.30
25080;BME280;13071;48.868;9.996;2023-04-27T03:18:14;96613.94;;;5.42;89.93
25080;BME280;13071;48.868;9.996;2023-04-27T03:20:40;96620.78;;;5.48;90.54
25080;BME280;13071;48.868;9.996;2023-04-27T03:23:09;96613.25;;;5.50;90.54
25080;BME280;13071;48.868;9.996;2023-04-27T03:25:36;96616.44;;;5.52;90.73
25080;BME280;13071;48.868;9.996;2023-04-27T03:28:03;96618.28;;;5.38;90.85
25080;BME280;13071;48.868;9.996;2023-04-27T03:30:29;96616.31;;;5.44;90.34
25080;BME280;13071;48.868;9.996;2023-04-27T03:32:56;96619.00;;;5.44;90.39
25080;BME280;13071;48.868;9.996;2023-04-27T03:35:23;96616.31;;;5.44;90.93
25080;BME280;13071;48.868;9.996;2023-04-27T03:37:49;96620.78;;;5.48;90.86
25080;BME280;13071;48.868;9.996;2023-04-27T03:40:17;96623.97;;;5.50;91.15
25080;BME280;13071;48.868;9.996;2023-04-27T03:42:44;96624.28;;;5.49;91.18
25080;BME280;13071;48.868;9.996;2023-04-27T03:45:11;96622.19;;;5.59;90.68
25080;BME280;13071;48.868;9.996;2023-04-27T03:47:37;96626.06;;;5.53;90.16
25080;BME280;13071;48.868;9.996;2023-04-27T03:50:04;96619.78;;;5.58;90.35
25080;BME280;13071;48.868;9.996;2023-04-27T03:52:31;96619.03;;;5.57;89.84
25080;BME280;13071;48.868;9.996;2023-04-27T03:54:58;96622.38;;;5.63;90.02
25080;BME280;13071;48.868;9.996;2023-04-27T03:57:26;96621.72;;;5.71;89.80
25080;BME280;13071;48.868;9.996;2023-04-27T03:59:52;96623.97;;;5.78;89.49
25080;BME280;13071;48.868;9.996;2023-04-27T04:02:19;96616.44;;;5.80;88.60
25080;BME280;13071;48.868;9.996;2023-04-27T04:04:46;96617.03;;;5.77;88.05
25080;BME280;13071;48.868;9.996;2023-04-27T04:07:12;96614.53;;;5.80;88.60
25080;BME280;13071;48.868;9.996;2023-04-27T04:09:39;96616.44;;;5.80;88.50
25080;BME280;13071;48.868;9.996;2023-04-27T04:12:07;96618.50;;;5.83;87.85
25080;BME280;13071;48.868;9.996;2023-04-27T04:14:35;96618.81;;;5.81;87.90
25080;BME280;13071;48.868;9.996;2023-04-27T04:17:02;96618.22;;;5.84;87.11
25080;BME280;13071;48.868;9.996;2023-04-27T04:19:28;96628.88;;;5.89;87.53
25080;BME280;13071;48.868;9.996;2023-04-27T04:21:55;96639.03;;;5.92;87.49
25080;BME280;13071;48.868;9.996;2023-04-27T04:24:22;96637.03;;;5.98;87.63
25080;BME280;13071;48.868;9.996;2023-04-27T04:26:48;96642.28;;;5.76;88.69
25080;BME280;13071;48.868;9.996;2023-04-27T04:29:15;96628.88;;;5.89;88.12
25080;BME280;13071;48.868;9.996;2023-04-27T04:31:43;96624.38;;;5.85;88.95
25080;BME280;13071;48.868;9.996;2023-04-27T04:34:10;96622.78;;;5.84;89.76
25080;BME280;13071;48.868;9.996;2023-04-27T04:36:37;96624.41;;;5.98;89.60
25080;BME280;13071;48.868;9.996;2023-04-27T04:39:03;96616.03;;;6.00;89.44
25080;BME280;13071;48.868;9.996;2023-04-27T04:41:31;96618.13;;;6.03;89.29
25080;BME280;13071;48.868;9.996;2023-04-27T04:43:58;96632.53;;;6.07;89.25
25080;BME280;13071;48.868;9.996;2023-04-27T04:46:25;96639.13;;;6.01;90.14
25080;BME280;13071;48.868;9.996;2023-04-27T04:48:53;96637.84;;;5.98;89.92
25080;BME280;13071;48.868;9.996;2023-04-27T04:51:19;96641.50;;;5.61;91.43
25080;BME280;13071;48.868;9.996;2023-04-27T04:53:46;96644.28;;;5.70;91.81
25080;BME280;13071;48.868;9.996;2023-04-27T04:56:13;96653.22;;;5.79;90.74
25080;BME280;13071;48.868;9.996;2023-04-27T04:58:41;96649.47;;;5.80;90.82
25080;BME280;13071;48.868;9.996;2023-04-27T05:01:07;96648.38;;;5.81;90.94
25080;BME280;13071;48.868;9.996;2023-04-27T05:03:34;96640.72;;;5.88;90.29
25080;BME280;13071;48.868;9.996;2023-04-27T05:06:02;96643.53;;;5.97;90.67
25080;BME280;13071;48.868;9.996;2023-04-27T05:08:29;96642.63;;;6.01;90.34
25080;BME280;13071;48.868;9.996;2023-04-27T05:10:55;96637.03;;;5.98;90.78
25080;BME280;13071;48.868;9.996;2023-04-27T05:13:22;96635.22;;;6.07;90.81
25080;BME280;13071;48.868;9.996;2023-04-27T05:15:50;96643.59;;;6.19;91.53
25080;BME280;13071;48.868;9.996;2023-04-27T05:18:16;96633.94;;;6.18;91.71
25080;BME280;13071;48.868;9.996;2023-04-27T05:20:44;96641.47;;;6.30;92.05
25080;BME280;13071;48.868;9.996;2023-04-27T05:23:12;96642.66;;;6.37;92.02
25080;BME280;13071;48.868;9.996;2023-04-27T05:25:38;96650.53;;;6.34;92.17
25080;BME280;13071;48.868;9.996;2023-04-27T05:28:08;96655.41;;;6.45;91.56
25080;BME280;13071;48.868;9.996;2023-04-27T05:30:35;96653.94;;;6.12;93.67
25080;BME280;13071;48.868;9.996;2023-04-27T05:33:01;96658.31;;;6.35;93.93
25080;BME280;13071;48.868;9.996;2023-04-27T05:35:28;96660.84;;;6.54;93.19
25080;BME280;13071;48.868;9.996;2023-04-27T05:37:55;96658.91;;;6.68;91.72
25080;BME280;13071;48.868;9.996;2023-04-27T05:40:23;96660.69;;;6.73;91.42
25080;BME280;13071;48.868;9.996;2023-04-27T05:42:49;96652.91;;;6.71;92.13
25080;BME280;13071;48.868;9.996;2023-04-27T05:45:16;96654.28;;;6.82;90.56
25080;BME280;13071;48.868;9.996;2023-04-27T05:47:43;96655.44;;;6.90;91.48
25080;BME280;13071;48.868;9.996;2023-04-27T05:50:10;96649.44;;;6.93;91.27
25080;BME280;13071;48.868;9.996;2023-04-27T05:52:36;96652.06;;;7.07;90.51
25080;BME280;13071;48.868;9.996;2023-04-27T05:55:04;96653.72;;;7.16;90.51
25080;BME280;13071;48.868;9.996;2023-04-27T05:57:33;96656.81;;;7.32;89.57
25080;BME280;13071;48.868;9.996;2023-04-27T05:59:59;96666.41;;;7.47;88.99
25080;BME280;13071;48.868;9.996;2023-04-27T06:02:26;96660.31;;;7.55;87.24
25080;BME280;13071;48.868;9.996;2023-04-27T06:04:52;96657.94;;;7.62;86.36
25080;BME280;13071;48.868;9.996;2023-04-27T06:07:19;96666.84;;;7.71;86.09
25080;BME280;13071;48.868;9.996;2023-04-27T06:09:46;96665.47;;;7.82;85.93
25080;BME280;13071;48.868;9.996;2023-04-27T06:12:12;96659.19;;;7.95;85.98
25080;BME280;13071;48.868;9.996;2023-04-27T06:14:40;96669.22;;;8.03;86.63
25080;BME280;13071;48.868;9.996;2023-04-27T06:17:07;96669.41;;;8.15;87.20
25080;BME280;13071;48.868;9.996;2023-04-27T06:19:33;96674.09;;;8.32;86.27
25080;BME280;13071;48.868;9.996;2023-04-27T06:22:00;96679.97;;;8.43;84.97
25080;BME280;13071;48.868;9.996;2023-04-27T06:24:28;96675.84;;;8.54;83.58
25080;BME280;13071;48.868;9.996;2023-04-27T06:26:54;96686.34;;;8.64;82.71
25080;BME280;13071;48.868;9.996;2023-04-27T06:29:21;96691.13;;;8.67;85.07
25080;BME280;13071;48.868;9.996;2023-04-27T06:31:49;96684.13;;;8.83;85.26
25080;BME280;13071;48.868;9.996;2023-04-27T06:34:15;96681.13;;;8.93;85.79
25080;BME280;13071;48.868;9.996;2023-04-27T06:36:42;96688.91;;;9.03;85.56
25080;BME280;13071;48.868;9.996;2023-04-27T06:39:08;96684.47;;;9.07;85.43
25080;BME280;13071;48.868;9.996;2023-04-27T06:41:35;96680.03;;;9.12;85.34
25080;BME280;13071;48.868;9.996;2023-04-27T06:44:02;96681.59;;;9.21;85.01
25080;BME280;13071;48.868;9.996;2023-04-27T06:46:28;96691.44;;;9.34;85.46
25080;BME280;13071;48.868;9.996;2023-04-27T06:48:56;96679.03;;;9.33;84.66
25080;BME280;13071;48.868;9.996;2023-04-27T06:51:23;96679.63;;;9.47;83.41
25080;BME280;13071;48.868;9.996;2023-04-27T06:53:49;96681.19;;;9.57;83.50
25080;BME280;13071;48.868;9.996;2023-04-27T06:56:16;96680.53;;;9.69;80.73
25080;BME280;13071;48.868;9.996;2023-04-27T06:58:42;96680.06;;;9.75;76.26
25080;BME280;13071;48.868;9.996;2023-04-27T07:01:09;96679.13;;;9.71;72.79
25080;BME280;13071;48.868;9.996;2023-04-27T07:03:36;96682.41;;;9.85;71.29
25080;BME280;13071;48.868;9.996;2023-04-27T07:06:04;96677.41;;;10.05;70.25
25080;BME280;13071;48.868;9.996;2023-04-27T07:08:32;96680.53;;;10.15;69.84
25080;BME280;13071;48.868;9.996;2023-04-27T07:10:59;96680.47;;;10.32;70.16
25080;BME280;13071;48.868;9.996;2023-04-27T07:13:25;96684.25;;;10.40;68.08
25080;BME280;13071;48.868;9.996;2023-04-27T07:15:53;96686.06;;;10.57;67.40
25080;BME280;13071;48.868;9.996;2023-04-27T07:18:21;96682.66;;;10.68;67.02
25080;BME280;13071;48.868;9.996;2023-04-27T07:20:48;96688.47;;;10.79;66.08
25080;BME280;13071;48.868;9.996;2023-04-27T07:23:16;96686.63;;;10.92;65.45
25080;BME280;13071;48.868;9.996;2023-04-27T07:25:43;96689.00;;;11.14;62.27
25080;BME280;13071;48.868;9.996;2023-04-27T07:28:10;96685.59;;;11.05;66.57
25080;BME280;13071;48.868;9.996;2023-04-27T07:30:37;96686.59;;;11.33;63.58
25080;BME280;13071;48.868;9.996;2023-04-27T07:33:04;96682.81;;;11.46;64.64
25080;BME280;13071;48.868;9.996;2023-04-27T07:35:31;96680.72;;;11.64;64.24
25080;BME280;13071;48.868;9.996;2023-04-27T07:37:58;96686.25;;;11.67;60.86
25080;BME280;13071;48.868;9.996;2023-04-27T07:40:27;96687.25;;;11.84;60.02
25080;BME280;13071;48.868;9.996;2023-04-27T07:42:54;96684.78;;;12.03;61.24
25080;BME280;13071;48.868;9.996;2023-04-27T07:45:22;96687.16;;;12.17;61.20
25080;BME280;13071;48.868;9.996;2023-04-27T07:47:55;96678.91;;;12.25;60.87
25080;BME280;13071;48.868;9.996;2023-04-27T07:50:23;96679.59;;;12.22;59.73
25080;BME280;13071;48.868;9.996;2023-04-27T07:52:50;96684.69;;;12.36;59.61
25080;BME280;13071;48.868;9.996;2023-04-27T07:55:16;96673.56;;;12.65;57.95
25080;BME280;13071;48.868;9.996;2023-04-27T07:57:44;96683.44;;;12.33;60.07
25080;BME280;13071;48.868;9.996;2023-04-27T08:00:11;96677.31;;;12.48;58.46
25080;BME280;13071;48.868;9.996;2023-04-27T08:02:38;96687.63;;;13.07;58.13
25080;BME280;13071;48.868;9.996;2023-04-27T08:05:05;96682.72;;;13.25;55.49
25080;BME280;13071;48.868;9.996;2023-04-27T08:07:32;96681.28;;;13.03;55.84
25080;BME280;13071;48.868;9.996;2023-04-27T08:09:59;96667.47;;;13.08;56.20
25080;BME280;13071;48.868;9.996;2023-04-27T08:12:26;96681.47;;;13.22;56.15
25080;BME280;13071;48.868;9.996;2023-04-27T08:14:54;96678.75;;;13.22;54.51
25080;BME280;13071;48.868;9.996;2023-04-27T08:17:20;96682.28;;;13.23;53.42
25080;BME280;13071;48.868;9.996;2023-04-27T08:19:47;96677.66;;;13.51;53.98
25080;BME280;13071;48.868;9.996;2023-04-27T08:22:13;96669.06;;;13.65;54.86
25080;BME280;13071;48.868;9.996;2023-04-27T08:24:40;96678.53;;;13.55;54.35
25080;BME280;13071;48.868;9.996;2023-04-27T08:27:07;96672.34;;;13.43;54.87
25080;BME280;13071;48.868;9.996;2023-04-27T08:29:33;96676.41;;;13.49;54.82
25080;BME280;13071;48.868;9.996;2023-04-27T08:32:03;96675.88;;;14.02;53.14
25080;BME280;13071;48.868;9.996;2023-04-27T08:34:30;96673.50;;;14.32;52.76
25080;BME280;13071;48.868;9.996;2023-04-27T08:36:56;96679.84;;;14.36;50.95
25080;BME280;13071;48.868;9.996;2023-04-27T08:39:24;96678.25;;;14.51;50.21
25080;BME280;13071;48.868;9.996;2023-04-27T08:41:51;96670.41;;;14.65;51.33
25080;BME280;13071;48.868;9.996;2023-04-27T08:44:17;96666.13;;;14.64;51.67
25080;BME280;13071;48.868;9.996;2023-04-27T08:46:44;96659.84;;;14.79;52.95
25080;BME280;13071;48.868;9.996;2023-04-27T08:49:12;96662.19;;;14.81;52.31
25080;BME280;13071;48.868;9.996;2023-04-27T08:51:39;96649.78;;;14.17;52.34
25080;BME280;13071;48.868;9.996;2023-04-27T08:54:06;96654.16;;;14.68;51.59
25080;BME280;13071;48.868;9.996;2023-04-27T08:56:32;96655.00;;;14.73;51.99
25080;BME280;13071;48.868;9.996;2023-04-27T08:59:00;96652.91;;;14.66;52.19
25080;BME280;13071;48.868;9.996;2023-04-27T09:01:28;96642.97;;;14.39;52.54
25080;BME280;13071;48.868;9.996;2023-04-27T09:03:55;96650.16;;;14.15;53.77
25080;BME280;13071;48.868;9.996;2023-04-27T09:06:29;96647.97;;;14.37;53.62
25080;BME280;13071;48.868;9.996;2023-04-27T09:08:57;96650.19;;;14.66;51.84
25080;BME280;13071;48.868;9.996;2023-04-27T09:11:28;96644.19;;;14.76;49.82
25080;BME280;13071;48.868;9.996;2023-04-27T09:13:57;96643.34;;;14.56;51.48
25080;BME280;13071;48.868;9.996;2023-04-27T09:16:24;96649.75;;;14.99;52.34
25080;BME280;13071;48.868;9.996;2023-04-27T09:18:52;96651.16;;;14.74;50.48
25080;BME280;13071;48.868;9.996;2023-04-27T09:21:22;96644.53;;;14.24;52.58
25080;BME280;13071;48.868;9.996;2023-04-27T09:23:51;96648.28;;;14.51;55.47
25080;BME280;13071;48.868;9.996;2023-04-27T09:26:19;96646.56;;;14.78;52.30
25080;BME280;13071;48.868;9.996;2023-04-27T09:28:48;96649.06;;;14.67;52.46
25080;BME280;13071;48.868;9.996;2023-04-27T09:31:15;96644.69;;;14.82;51.34
25080;BME280;13071;48.868;9.996;2023-04-27T09:33:43;96646.72;;;13.87;52.20
25080;BME280;13071;48.868;9.996;2023-04-27T09:36:10;96647.66;;;14.92;51.47
25080;BME280;13071;48.868;9.996;2023-04-27T09:38:36;96638.75;;;14.76;49.35
25080;BME280;13071;48.868;9.996;2023-04-27T09:41:06;96637.31;;;14.82;51.51
25080;BME280;13071;48.868;9.996;2023-04-27T09:43:33;96639.31;;;14.85;53.60
25080;BME280;13071;48.868;9.996;2023-04-27T09:46:03;96644.53;;;14.08;52.70
25080;BME280;13071;48.868;9.996;2023-04-27T09:48:30;96645.28;;;13.62;53.19
25080;BME280;13071;48.868;9.996;2023-04-27T09:50:56;96647.50;;;13.72;53.41
25080;BME280;13071;48.868;9.996;2023-04-27T09:53:26;96638.56;;;13.87;52.76
25080;BME280;13071;48.868;9.996;2023-04-27T09:56:05;96633.31;;;14.25;53.00
25080;BME280;13071;48.868;9.996;2023-04-27T09:59:04;96634.16;;;14.30;53.23
25080;BME280;13071;48.868;9.996;2023-04-27T10:01:38;96642.84;;;14.35;52.11
25080;BME280;13071;48.868;9.996;2023-04-27T10:04:21;96642.47;;;14.68;49.67
25080;BME280;13071;48.868;9.996;2023-04-27T10:06:58;96639.81;;;14.05;50.07
25080;BME280;13071;48.868;9.996;2023-04-27T10:09:26;96644.34;;;13.70;53.57
25080;BME280;13071;48.868;9.996;2023-04-27T10:11:54;96636.09;;;14.13;53.88
25080;BME280;13071;48.868;9.996;2023-04-27T10:14:23;96640.13;;;14.86;51.75
25080;BME280;13071;48.868;9.996;2023-04-27T10:16:54;96631.31;;;15.31;49.31
25080;BME280;13071;48.868;9.996;2023-04-27T10:19:22;96636.91;;;14.45;51.03
25080;BME280;13071;48.868;9.996;2023-04-27T10:21:56;96635.97;;;15.11;49.07
25080;BME280;13071;48.868;9.996;2023-04-27T10:24:33;96634.94;;;13.52;49.75
25080;BME280;13071;48.868;9.996;2023-04-27T10:27:02;96630.31;;;14.15;51.72
25080;BME280;13071;48.868;9.996;2023-04-27T10:29:36;96625.66;;;14.15;52.52
25080;BME280;13071;48.868;9.996;2023-04-27T10:32:08;96624.53;;;14.67;50.73
25080;BME280;13071;48.868;9.996;2023-04-27T10:34:35;96630.22;;;15.16;50.58
25080;BME280;13071;48.868;9.996;2023-04-27T10:37:07;96627.00;;;15.10;48.28
25080;BME280;13071;48.868;9.996;2023-04-27T10:39:36;96621.75;;;14.83;50.30
25080;BME280;13071;48.868;9.996;2023-04-27T10:42:04;96630.09;;;15.28;50.03
25080;BME280;13071;48.868;9.996;2023-04-27T10:44:32;96631.94;;;14.86;51.21
25080;BME280;13071;48.868;9.996;2023-04-27T10:47:10;96614.72;;;15.39;49.18
25080;BME280;13071;48.868;9.996;2023-04-27T10:49:38;96623.81;;;15.66;52.53
25080;BME280;13071;48.868;9.996;2023-04-27T10:52:04;96624.63;;;15.89;48.50
25080;BME280;13071;48.868;9.996;2023-04-27T10:54:31;96612.75;;;15.78;49.16
25080;BME280;13071;48.868;9.996;2023-04-27T10:57:02;96619.47;;;15.84;48.43
25080;BME280;13071;48.868;9.996;2023-04-27T10:59:29;96621.59;;;15.72;48.59
25080;BME280;13071;48.868;9.996;2023-04-27T11:01:55;96619.50;;;15.04;48.04
25080;BME280;13071;48.868;9.996;2023-04-27T11:04:34;96612.84;;;15.63;45.90
25080;BME280;13071;48.868;9.996;2023-04-27T11:07:00;96619.09;;;15.63;47.03
25080;BME280;13071;48.868;9.996;2023-04-27T11:09:28;96615.75;;;14.93;48.25
25080;BME280;13071;48.868;9.996;2023-04-27T11:11:55;96612.72;;;15.36;49.78
25080;BME280;13071;48.868;9.996;2023-04-27T11:14:22;96610.44;;;15.58;49.05
25080;BME280;13071;48.868;9.996;2023-04-27T11:16:48;96615.41;;;15.75;47.32
25080;BME280;13071;48.868;9.996;2023-04-27T11:19:15;96612.59;;;15.10;48.70
25080;BME280;13071;48.868;9.996;2023-04-27T11:21:43;96619.31;;;14.43;50.43
25080;BME280;13071;48.868;9.996;2023-04-27T11:24:10;96622.63;;;15.06;47.56
25080;BME280;13071;48.868;9.996;2023-04-27T11:26:36;96619.03;;;15.40;52.36
25080;BME280;13071;48.868;9.996;2023-04-27T11:29:05;96617.31;;;15.51;48.71
25080;BME280;13071;48.868;9.996;2023-04-27T11:31:38;96613.22;;;15.84;45.38
25080;BME280;13071;48.868;9.996;2023-04-27T11:34:06;96618.97;;;15.79;46.63
25080;BME280;13071;48.868;9.996;2023-04-27T11:36:32;96614.91;;;15.69;47.33
25080;BME280;13071;48.868;9.996;2023-04-27T11:39:00;96607.81;;;15.03;47.75
25080;BME280;13071;48.868;9.996;2023-04-27T11:41:33;96605.59;;;14.55;48.75
25080;BME280;13071;48.868;9.996;2023-04-27T11:44:06;96599.63;;;15.03;49.98
25080;BME280;13071;48.868;9.996;2023-04-27T11:46:34;96604.56;;;14.79;48.66
25080;BME280;13071;48.868;9.996;2023-04-27T11:49:02;96609.34;;;15.62;48.27
25080;BME280;13071;48.868;9.996;2023-04-27T11:51:30;96609.16;;;15.97;48.31
25080;BME280;13071;48.868;9.996;2023-04-27T11:54:01;96607.69;;;16.26;46.65
25080;BME280;13071;48.868;9.996;2023-04-27T11:56:35;96597.38;;;16.16;44.28
25080;BME280;13071;48.868;9.996;2023-04-27T11:59:02;96602.00;;;15.66;45.59
25080;BME280;13071;48.868;9.996;2023-04-27T12:01:30;96605.94;;;14.88;45.98
25080;BME280;13071;48.868;9.996;2023-04-27T12:03:56;96606.28;;;15.06;45.58
25080;BME280;13071;48.868;9.996;2023-04-27T12:06:24;96597.16;;;15.56;45.47
25080;BME280;13071;48.868;9.996;2023-04-27T12:08:51;96600.97;;;15.74;45.03
25080;BME280;13071;48.868;9.996;2023-04-27T12:11:19;96602.72;;;16.09;44.39
25080;BME280;13071;48.868;9.996;2023-04-27T12:13:46;96600.84;;;16.13;46.80
25080;BME280;13071;48.868;9.996;2023-04-27T12:16:12;96595.53;;;16.23;44.03
25080;BME280;13071;48.868;9.996;2023-04-27T12:18:39;96588.41;;;16.68;46.61
25080;BME280;13071;48.868;9.996;2023-04-27T12:21:06;96589.97;;;16.99;45.59
25080;BME280;13071;48.868;9.996;2023-04-27T12:23:34;96590.91;;;16.80;44.47
25080;BME280;13071;48.868;9.996;2023-04-27T12:26:01;96591.41;;;16.89;46.19
25080;BME280;13071;48.868;9.996;2023-04-27T12:28:29;96595.16;;;17.07;45.83
25080;BME280;13071;48.868;9.996;2023-04-27T12:30:55;96588.16;;;17.10;44.13
25080;BME280;13071;48.868;9.996;2023-04-27T12:33:22;96598.31;;;17.09;44.56
25080;BME280;13071;48.868;9.996;2023-04-27T12:35:49;96598.56;;;16.67;45.46
25080;BME280;13071;48.868;9.996;2023-04-27T12:38:16;96596.34;;;16.01;45.27
25080;BME280;13071;48.868;9.996;2023-04-27T12:40:42;96594.28;;;16.70;46.76
25080;BME280;13071;48.868;9.996;2023-04-27T12:43:09;96590.25;;;16.90;44.33
25080;BME280;13071;48.868;9.996;2023-04-27T12:45:38;96585.59;;;16.38;47.12
25080;BME280;13071;48.868;9.996;2023-04-27T12:48:05;96586.09;;;17.00;45.53
25080;BME280;13071;48.868;9.996;2023-04-27T12:50:32;96587.09;;;16.88;43.61
25080;BME280;13071;48.868;9.996;2023-04-27T12:52:59;96591.06;;;16.91;45.23
25080;BME280;13071;48.868;9.996;2023-04-27T12:55:25;96584.66;;;17.09;46.27
25080;BME280;13071;48.868;9.996;2023-04-27T12:57:52;96587.63;;;16.67;45.26
25080;BME280;13071;48.868;9.996;2023-04-27T13:00:19;96594.00;;;15.77;46.33
25080;BME280;13071;48.868;9.996;2023-04-27T13:02:47;96579.00;;;16.13;49.91
25080;BME280;13071;48.868;9.996;2023-04-27T13:05:13;96587.25;;;16.42;45.80
25080;BME280;13071;48.868;9.996;2023-04-27T13:07:40;96581.50;;;16.77;45.40